Архив погоды в Лальске

Метеограмма Лальск
Вторник, 19 Июня
Время местн. Темп Ветер Видим Явления Облачность нижн/средн/верх Атм. давл. Влжн Точка росы ВНГО R Сост. почвы Tg s
Напр Скр Прв ур.ст ур.м изм
00:00 +14.2° З 1 1 50 км - облачно с прояснениями 751 759 -0.2 75% +9.9° - - - - -
Понедельник, 18 Июня
Время местн. Темп Ветер Видим Явления Облачность нижн/средн/верх Атм. давл. Влжн Точка росы ВНГО R Сост. почвы Tg s
Напр Скр Прв ур.ст ур.м изм
21:00 +19.6° штиль 0 4 20 км - переменная облачность 751 759 -0.2 51% +9.2° более 2.5 км - - - -
18:00 +27.7° С 1 5 20 км - переменная облачность 752 759 -0.7 28% +7.7° 1.5 км 0 - - -
15:00 +28.2° С 1 5 20 км - переменная облачность 752 759 -0.8 25% +6.5° 1.5 км - - - -
12:00 +26.6° С,С-В 1 3 20 км - переменная облачность 753 760 -1.1 28% +6.7° 1.5 км - - - -
09:00 +22.3° штиль 0 3 20 км - облачно с прояснениями 754 762 -0.5 42% +8.8° 1.5 км - - - -
06:00 +12.3° штиль 0 0 20 км - преимущественно облачно 755 762 -0.2 80% +8.9° - - Влажная (без луж) - -
03:00 +7.9° штиль 0 0 20 км - преимущественно облачно 755 762 +0.1 90% +6.4° - - - - -
00:00 +10.3° штиль 0 0 50 км - облачно с прояснениями 755 762 +0.3 80% +7° - - - - -
Воскресенье, 17 Июня
Время местн. Темп Ветер Видим Явления Облачность нижн/средн/верх Атм. давл. Влжн Точка росы ВНГО R Сост. почвы Tg s
Напр Скр Прв ур.ст ур.м изм
21:00 +16.3° штиль 0 0 20 км - преимущественно облачно 754 762 -0.2 64% +9.4° более 2.5 км - - - -
18:00 +25.6° С-В 2 3 20 км - незначительная облачность 754 761 -0.8 25% +4.3° 1.5 км - - - -
15:00 +25.4° С,С-В 1 4 20 км - незначительная облачность 755 762 -0.8 25% +4° - - - - -
12:00 +23.6° С 2 7 20 км - ясно 756 763 -0.6 26% +3.2° более 2.5 км - - - -
09:00 +20.7° С-В 3 5 20 км - ясно 756 764 -0.5 30% +2.7° более 2.5 км - - - -
06:00 +11.8° штиль 0 0 20 км - ясно 757 764 +0.2 66% +5.6° более 2.5 км - Влажная (без луж) - -
03:00 +5.4° штиль 0 0 20 км - незначительная облачность 757 765 +0.2 88% +3.5° - - - - -
00:00 +9.8° З 1 1 50 км - облачно с прояснениями 756 764 +0.3 68% +4.1° - - - - -
Суббота, 16 Июня
Время местн. Темп Ветер Видим Явления Облачность нижн/средн/верх Атм. давл. Влжн Точка росы ВНГО R Сост. почвы Tg s
Напр Скр Прв ур.ст ур.м изм
21:00 +16.4° З,С-З 1 4 20 км - переменная облачность 756 764 +0.1 38% +2.1° более 2.5 км - - - -
18:00 +21° С,С-З 1 8 20 км - преимущественно облачно 756 763 -0.5 22% -1.2° более 2.5 км 0 - - -
15:00 +20.4° С-З 2 7 20 км - преимущественно облачно 757 764 -0.5 24% -0.9° более 2.5 км - - - -
12:00 +18.5° С-З 2 6 20 км - переменная облачность 757 765 -0.2 30% +0.6° 1 км - - - -
09:00 +16° С 2 8 20 км - ясно 757 765 0 33% -0.2° более 2.5 км - - - -
06:00 +10° С-З 1 1 20 км - ясно 757 765 +0.8 62% +3° более 2.5 км - Влажная (без луж) - -
03:00 +2.5° З 1 3 20 км - ясно 756 764 +0.7 82% -0.2° более 2.5 км - - - -
00:00 +4.7° штиль 0 2 50 км - ясно 756 764 +0.4 76% +0.8° более 2.5 км - - - -
Пятница, 15 Июня
Время местн. Темп Ветер Видим Явления Облачность нижн/средн/верх Атм. давл. Влжн Точка росы ВНГО R Сост. почвы Tg s
Напр Скр Прв ур.ст ур.м изм
21:00 +11.5° З 1 2 20 км - переменная облачность 755 763 -0.2 43% -0.7° - - - - -